Baja Star — XCAY9 — position and weather

sailwx.info

Track history (hours):
 
Tides and Currents Weather Stations Pressure Air Temp Water Temp Dewpoint Dewpoint Depression Visibility Wind Speed Wind Dir Waves Ship Positions

Baja Star

Last reported at 2018-Jan-31 04:16 UTC. Time now 2018-Apr-21 17:25 UTC.
Position N 24°22' W 110°20'.
Warning: this ship's position is months out of date.

Length 170 m; draft 6.5 m.

Type: Ship (hazmat cat C). MMSI: 345040030.

Date/timePositionNaut miles runAvg speedWind from/ knotsBaromVisibWave heightAir tempDewpointWater temp
2018-Jan-31 04:16N 24°22' W 110°20'517.4
2018-Jan-31 03:59N 24°17' W 110°21'2 3.4
2018-Jan-31 03:29N 24°16' W 110°20'0 0.0
2018-Jan-31 03:00N 24°16' W 110°20'0 0.0
2018-Jan-31 02:29N 24°16' W 110°20'0 0.0
2018-Jan-31 02:00N 24°16' W 110°20'0 0.0
2018-Jan-31 01:27N 24°16' W 110°20'0 0.0
2018-Jan-31 01:00N 24°16' W 110°20'0 0.0
2018-Jan-31 00:00N 24°16' W 110°20'0 0.0
2018-Jan-30 23:29N 24°16' W 110°20'0 0.0
2018-Jan-30 22:59N 24°16' W 110°20'0 0.0
2018-Jan-30 22:29N 24°16' W 110°20'0 0.0
2018-Jan-30 21:30N 24°16' W 110°20'0 0.0
2018-Jan-30 20:57N 24°16' W 110°20'0 0.0
2018-Jan-30 20:30N 24°16' W 110°20'0 0.0
2018-Jan-30 20:00N 24°16' W 110°20'0 0.0
2018-Jan-30 19:30N 24°16' W 110°20'0 0.0
2018-Jan-30 19:00N 24°16' W 110°20'0 0.0
2018-Jan-30 18:30N 24°16' W 110°20'0 0.0
2018-Jan-30 18:00N 24°16' W 110°20'0 0.0
2018-Jan-30 17:30N 24°16' W 110°20'0 0.0
2018-Jan-30 16:59N 24°16' W 110°20'0 0.0
2018-Jan-30 16:30N 24°16' W 110°20'0 0.0
2018-Jan-30 16:00N 24°16' W 110°20'0 0.0
2018-Jan-30 15:30N 24°16' W 110°20'0 0.0
2018-Jan-30 15:00N 24°16' W 110°20'0 0.0
2018-Jan-30 14:30N 24°16' W 110°20'0 0.0
2018-Jan-30 13:29N 24°16' W 110°20'0 0.0
2018-Jan-30 13:00N 24°16' W 110°20'0 0.0
2018-Jan-30 12:29N 24°16' W 110°20'0 0.0
2018-Jan-30 11:59N 24°16' W 110°20'0 0.0
2018-Jan-30 11:30N 24°16' W 110°20'0 0.0
2018-Jan-30 10:29N 24°16' W 110°20'0 0.0
2018-Jan-30 09:29N 24°16' W 110°20'0 0.0
2018-Jan-30 09:00N 24°16' W 110°20'0 0.0
2018-Jan-30 08:30N 24°16' W 110°20'0 0.0
2018-Jan-30 08:00N 24°16' W 110°20'0 0.0
2018-Jan-30 07:30N 24°16' W 110°20'0 0.0
2018-Jan-30 06:59N 24°16' W 110°20'0 0.0
2018-Jan-30 06:29N 24°16' W 110°20'0 0.0
2018-Jan-30 06:00N 24°16' W 110°20'0 0.0
2018-Jan-30 05:30N 24°16' W 110°20'0 0.0
2018-Jan-30 04:59N 24°16' W 110°20'0 0.0
2018-Jan-30 04:29N 24°16' W 110°20'0 0.0
2018-Jan-29 15:45N 24°16' W 110°20'0 0.0
2018-Jan-29 15:28N 24°16' W 110°20'0 0.0
2018-Jan-29 14:59N 24°16' W 110°20'0 0.1
2018-Jan-29 14:30N 24°16' W 110°20'2 3.0
2018-Jan-29 13:59N 24°17' W 110°21'5 0.1
2018-Jan-28 03:41N 24°22' W 110°20'517.8
2018-Jan-28 03:25N 24°17' W 110°21'2 4.2
2018-Jan-28 03:00N 24°16' W 110°20'0 0.0
2018-Jan-28 02:23N 24°16' W 110°20'0 0.0
2018-Jan-28 01:59N 24°16' W 110°20'0 0.0
2018-Jan-28 01:29N 24°16' W 110°20'0 0.0
2018-Jan-28 00:59N 24°16' W 110°20'0 0.0
2018-Jan-28 00:29N 24°16' W 110°20'0 0.0
2018-Jan-27 23:59N 24°16' W 110°20'0 0.0
2018-Jan-27 23:29N 24°16' W 110°20'0 0.0
2018-Jan-27 22:59N 24°16' W 110°20'0 0.0
2018-Jan-27 22:29N 24°16' W 110°20'0 0.0
2018-Jan-27 21:59N 24°16' W 110°20'0 0.0
2018-Jan-27 21:29N 24°16' W 110°20'0 0.0
2018-Jan-27 20:59N 24°16' W 110°20'0 0.0
2018-Jan-27 20:26N 24°16' W 110°20'0 0.0
2018-Jan-27 19:59N 24°16' W 110°20'0 0.0
2018-Jan-27 19:29N 24°16' W 110°20'0 0.0
2018-Jan-27 18:59N 24°16' W 110°20'0 0.0
2018-Jan-27 18:29N 24°16' W 110°20'0 0.0
2018-Jan-27 17:59N 24°16' W 110°20'0 0.0
2018-Jan-27 17:26N 24°16' W 110°20'0 0.0
2018-Jan-27 16:59N 24°16' W 110°20'0 0.0
2018-Jan-27 16:29N 24°16' W 110°20'0 0.0
2018-Jan-27 15:56N 24°16' W 110°20'0 0.0
2018-Jan-27 15:29N 24°16' W 110°20'0 0.0
2018-Jan-27 14:59N 24°16' W 110°20'0 0.0
2018-Jan-27 14:29N 24°16' W 110°20'1 1.9
2018-Jan-27 14:00N 24°15' W 110°20'612.1
2018-Jan-27 13:29N 24°22' W 110°21'1 0.0
2018-Jan-26 03:44N 24°22' W 110°20'418.3
2018-Jan-26 03:30N 24°18' W 110°22'3 5.3
2018-Jan-26 03:00N 24°16' W 110°20'0 0.0
2018-Jan-26 02:29N 24°16' W 110°20'0 0.0
2018-Jan-26 01:58N 24°16' W 110°20'0 0.0
2018-Jan-26 01:28N 24°16' W 110°20'0 0.0
2018-Jan-26 00:58N 24°16' W 110°20'0 0.0
2018-Jan-26 00:28N 24°16' W 110°20'0 0.0
2018-Jan-25 23:58N 24°16' W 110°20'0 0.0
2018-Jan-25 23:28N 24°16' W 110°20'0 0.0
2018-Jan-25 22:59N 24°16' W 110°20'0 0.0
2018-Jan-25 22:28N 24°16' W 110°20'0 0.0
2018-Jan-25 21:58N 24°16' W 110°20'0 0.0
2018-Jan-25 21:28N 24°16' W 110°20'0 0.0
2018-Jan-25 20:58N 24°16' W 110°20'0 0.0
2018-Jan-25 20:29N 24°16' W 110°20'0 0.0
2018-Jan-25 19:58N 24°16' W 110°20'0 0.0
2018-Jan-25 19:28N 24°16' W 110°20'0 0.0
2018-Jan-25 18:58N 24°16' W 110°20'0 0.0
2018-Jan-25 18:28N 24°16' W 110°20'0 0.0
2018-Jan-25 17:58N 24°16' W 110°20'0 0.0
2018-Jan-25 17:28N 24°16' W 110°20'0 0.0
2018-Jan-25 16:58N 24°16' W 110°20'0 0.0
2018-Jan-25 16:28N 24°16' W 110°20'0 0.0
2018-Jan-25 15:59N 24°16' W 110°20'0 0.0
2018-Jan-25 15:28N 24°16' W 110°20'0 0.1
2018-Jan-25 14:57N 24°16' W 110°20'2 3.3
2018-Jan-25 14:28N 24°15' W 110°21'2 3.9
2018-Jan-25 13:58N 24°17' W 110°21'5 0.1
2018-Jan-24 03:42N 24°22' W 110°20'418.8
2018-Jan-24 03:28N 24°18' W 110°21'2 4.1
2018-Jan-24 02:59N 24°16' W 110°20'0 0.0
2018-Jan-24 02:28N 24°16' W 110°20'0 0.0
2018-Jan-24 01:58N 24°16' W 110°20'0 0.0
2018-Jan-24 01:23N 24°16' W 110°20'0 0.0
2018-Jan-24 00:58N 24°16' W 110°20'0 0.0
2018-Jan-24 00:28N 24°16' W 110°20'0 0.0
2018-Jan-23 23:58N 24°16' W 110°20'0 0.1
2018-Jan-23 23:28N 24°16' W 110°20'1 1.1
2018-Jan-23 22:59N 24°16' W 110°20'0 0.0
2018-Jan-23 22:28N 24°16' W 110°20'0 0.0
2018-Jan-23 21:58N 24°16' W 110°20'0 0.0
2018-Jan-23 21:28N 24°16' W 110°20'0 0.0
2018-Jan-23 20:58N 24°16' W 110°20'0 0.0
2018-Jan-23 20:25N 24°16' W 110°20'0 0.0
2018-Jan-23 19:55N 24°16' W 110°20'0 0.0
2018-Jan-23 19:29N 24°16' W 110°20'0 0.0
2018-Jan-23 18:44N 24°16' W 110°20'0 0.0
2018-Jan-23 18:28N 24°16' W 110°20'0 0.0
2018-Jan-23 17:58N 24°16' W 110°20'0 0.0
2018-Jan-23 17:28N 24°16' W 110°20'0 0.0
2018-Jan-23 16:58N 24°16' W 110°20'0 0.0
2018-Jan-23 16:28N 24°16' W 110°20'0 0.0
2018-Jan-23 15:58N 24°16' W 110°20'0 0.0
2018-Jan-23 15:28N 24°16' W 110°20'0 0.0
2018-Jan-23 14:58N 24°16' W 110°20'0 0.0
2018-Jan-23 14:28N 24°16' W 110°20'0 0.0
2018-Jan-23 13:58N 24°16' W 110°20'0 0.0
2018-Jan-23 13:28N 24°16' W 110°20'0 0.0
2018-Jan-23 12:58N 24°16' W 110°20'0 0.0
2018-Jan-23 12:28N 24°16' W 110°20'0 0.0
2018-Jan-23 11:58N 24°16' W 110°20'0 0.0
2018-Jan-23 11:28N 24°16' W 110°20'0 0.0
2018-Jan-23 10:58N 24°16' W 110°20'0 0.0
2018-Jan-23 10:28N 24°16' W 110°20'0 0.0
2018-Jan-23 09:58N 24°16' W 110°20'0 0.0
2018-Jan-23 09:28N 24°16' W 110°20'0 0.0
2018-Jan-23 08:58N 24°16' W 110°20'0 0.0
2018-Jan-23 08:28N 24°16' W 110°20'0 0.0
2018-Jan-23 07:58N 24°16' W 110°20'0 0.0
2018-Jan-23 07:28N 24°16' W 110°20'0 0.0
2018-Jan-23 06:58N 24°16' W 110°20'0 0.0
2018-Jan-23 06:28N 24°16' W 110°20'0 0.0
2018-Jan-23 05:58N 24°16' W 110°20'0 0.0
2018-Jan-23 05:28N 24°16' W 110°20'0 0.0
2018-Jan-23 04:58N 24°16' W 110°20'0 0.0
2018-Jan-23 04:28N 24°16' W 110°20'0 0.0
2018-Jan-23 03:58N 24°16' W 110°20'0 0.0
2018-Jan-23 03:28N 24°16' W 110°20'0 0.0
2018-Jan-23 02:52N 24°16' W 110°20'0 0.0
2018-Jan-23 02:28N 24°16' W 110°20'0 0.0
2018-Jan-23 01:58N 24°16' W 110°20'0 0.0
2018-Jan-23 01:28N 24°16' W 110°20'0 0.0
2018-Jan-23 00:58N 24°16' W 110°20'0 0.0
2018-Jan-23 00:27N 24°16' W 110°20'0 0.0
2018-Jan-22 23:58N 24°16' W 110°20'0 0.0
2018-Jan-22 23:26N 24°16' W 110°20'0 0.0
2018-Jan-22 22:58N 24°16' W 110°20'0 0.0
2018-Jan-22 22:30N 24°16' W 110°20'0 0.0
2018-Jan-22 21:59N 24°16' W 110°20'0 0.0
2018-Jan-22 21:28N 24°16' W 110°20'0 0.0
2018-Jan-22 20:58N 24°16' W 110°20'0 0.0
2018-Jan-22 20:28N 24°16' W 110°20'0 0.0
2018-Jan-22 19:58N 24°16' W 110°20'0 0.0
2018-Jan-22 19:28N 24°16' W 110°20'0 0.0
2018-Jan-22 18:58N 24°16' W 110°20'0 0.0
2018-Jan-22 18:29N 24°16' W 110°20'0 0.1
2018-Jan-22 17:58N 24°16' W 110°20'1 0.9
2018-Jan-22 17:24N 24°16' W 110°20'0 0.0
2018-Jan-22 17:00N 24°16' W 110°20'0 0.0
2018-Jan-22 16:30N 24°16' W 110°20'0 0.0
2018-Jan-22 16:00N 24°16' W 110°20'0 0.0
2018-Jan-22 15:30N 24°16' W 110°20'0 0.0
2018-Jan-22 15:00N 24°16' W 110°20'0 0.5
2018-Jan-22 14:29N 24°16' W 110°20'2 4.8
2018-Jan-22 13:59N 24°18' W 110°21'  
Track history (hours):
 
Tides and Currents Weather Stations Pressure Air Temp Water Temp Dewpoint Dewpoint Depression Visibility Wind Speed Wind Dir Waves Ship Positions

Baja Star

Last reported at 2018-Jan-31 04:16 UTC. Time now 2018-Apr-21 17:25 UTC.
Position N 24°22' W 110°20'.
Warning: this ship's position is months out of date.

Length 170 m; draft 6.5 m.

Type: Ship (hazmat cat C). MMSI: 345040030.

Date/timePositionNaut miles runAvg speedWind from/ knotsBaromVisibWave heightAir tempDewpointWater temp
2018-Jan-31 04:16N 24°22' W 110°20'517.4
2018-Jan-31 03:59N 24°17' W 110°21'2 3.4
2018-Jan-31 03:29N 24°16' W 110°20'0 0.0
2018-Jan-31 03:00N 24°16' W 110°20'0 0.0
2018-Jan-31 02:29N 24°16' W 110°20'0 0.0
2018-Jan-31 02:00N 24°16' W 110°20'0 0.0
2018-Jan-31 01:27N 24°16' W 110°20'0 0.0
2018-Jan-31 01:00N 24°16' W 110°20'0 0.0
2018-Jan-31 00:00N 24°16' W 110°20'0 0.0
2018-Jan-30 23:29N 24°16' W 110°20'0 0.0
2018-Jan-30 22:59N 24°16' W 110°20'0 0.0
2018-Jan-30 22:29N 24°16' W 110°20'0 0.0
2018-Jan-30 21:30N 24°16' W 110°20'0 0.0
2018-Jan-30 20:57N 24°16' W 110°20'0 0.0
2018-Jan-30 20:30N 24°16' W 110°20'0 0.0
2018-Jan-30 20:00N 24°16' W 110°20'0 0.0
2018-Jan-30 19:30N 24°16' W 110°20'0 0.0
2018-Jan-30 19:00N 24°16' W 110°20'0 0.0
2018-Jan-30 18:30N 24°16' W 110°20'0 0.0
2018-Jan-30 18:00N 24°16' W 110°20'0 0.0
2018-Jan-30 17:30N 24°16' W 110°20'0 0.0
2018-Jan-30 16:59N 24°16' W 110°20'0 0.0
2018-Jan-30 16:30N 24°16' W 110°20'0 0.0
2018-Jan-30 16:00N 24°16' W 110°20'0 0.0
2018-Jan-30 15:30N 24°16' W 110°20'0 0.0
2018-Jan-30 15:00N 24°16' W 110°20'0 0.0
2018-Jan-30 14:30N 24°16' W 110°20'0 0.0
2018-Jan-30 13:29N 24°16' W 110°20'0 0.0
2018-Jan-30 13:00N 24°16' W 110°20'0 0.0
2018-Jan-30 12:29N 24°16' W 110°20'0 0.0
2018-Jan-30 11:59N 24°16' W 110°20'0 0.0
2018-Jan-30 11:30N 24°16' W 110°20'0 0.0
2018-Jan-30 10:29N 24°16' W 110°20'0 0.0
2018-Jan-30 09:29N 24°16' W 110°20'0 0.0
2018-Jan-30 09:00N 24°16' W 110°20'0 0.0
2018-Jan-30 08:30N 24°16' W 110°20'0 0.0
2018-Jan-30 08:00N 24°16' W 110°20'0 0.0
2018-Jan-30 07:30N 24°16' W 110°20'0 0.0
2018-Jan-30 06:59N 24°16' W 110°20'0 0.0
2018-Jan-30 06:29N 24°16' W 110°20'0 0.0
2018-Jan-30 06:00N 24°16' W 110°20'0 0.0
2018-Jan-30 05:30N 24°16' W 110°20'0 0.0
2018-Jan-30 04:59N 24°16' W 110°20'0 0.0
2018-Jan-30 04:29N 24°16' W 110°20'0 0.0
2018-Jan-29 15:45N 24°16' W 110°20'0 0.0
2018-Jan-29 15:28N 24°16' W 110°20'0 0.0
2018-Jan-29 14:59N 24°16' W 110°20'0 0.1
2018-Jan-29 14:30N 24°16' W 110°20'2 3.0
2018-Jan-29 13:59N 24°17' W 110°21'5 0.1
2018-Jan-28 03:41N 24°22' W 110°20'517.8
2018-Jan-28 03:25N 24°17' W 110°21'2 4.2
2018-Jan-28 03:00N 24°16' W 110°20'0 0.0
2018-Jan-28 02:23N 24°16' W 110°20'0 0.0
2018-Jan-28 01:59N 24°16' W 110°20'0 0.0
2018-Jan-28 01:29N 24°16' W 110°20'0 0.0
2018-Jan-28 00:59N 24°16' W 110°20'0 0.0
2018-Jan-28 00:29N 24°16' W 110°20'0 0.0
2018-Jan-27 23:59N 24°16' W 110°20'0 0.0
2018-Jan-27 23:29N 24°16' W 110°20'0 0.0
2018-Jan-27 22:59N 24°16' W 110°20'0 0.0
2018-Jan-27 22:29N 24°16' W 110°20'0 0.0
2018-Jan-27 21:59N 24°16' W 110°20'0 0.0
2018-Jan-27 21:29N 24°16' W 110°20'0 0.0
2018-Jan-27 20:59N 24°16' W 110°20'0 0.0
2018-Jan-27 20:26N 24°16' W 110°20'0 0.0
2018-Jan-27 19:59N 24°16' W 110°20'0 0.0
2018-Jan-27 19:29N 24°16' W 110°20'0 0.0
2018-Jan-27 18:59N 24°16' W 110°20'0 0.0
2018-Jan-27 18:29N 24°16' W 110°20'0 0.0
2018-Jan-27 17:59N 24°16' W 110°20'0 0.0
2018-Jan-27 17:26N 24°16' W 110°20'0 0.0
2018-Jan-27 16:59N 24°16' W 110°20'0 0.0
2018-Jan-27 16:29N 24°16' W 110°20'0 0.0
2018-Jan-27 15:56N 24°16' W 110°20'0 0.0
2018-Jan-27 15:29N 24°16' W 110°20'0 0.0
2018-Jan-27 14:59N 24°16' W 110°20'0 0.0
2018-Jan-27 14:29N 24°16' W 110°20'1 1.9
2018-Jan-27 14:00N 24°15' W 110°20'612.1
2018-Jan-27 13:29N 24°22' W 110°21'1 0.0
2018-Jan-26 03:44N 24°22' W 110°20'418.3
2018-Jan-26 03:30N 24°18' W 110°22'3 5.3
2018-Jan-26 03:00N 24°16' W 110°20'0 0.0
2018-Jan-26 02:29N 24°16' W 110°20'0 0.0
2018-Jan-26 01:58N 24°16' W 110°20'0 0.0
2018-Jan-26 01:28N 24°16' W 110°20'0 0.0
2018-Jan-26 00:58N 24°16' W 110°20'0 0.0
2018-Jan-26 00:28N 24°16' W 110°20'0 0.0
2018-Jan-25 23:58N 24°16' W 110°20'0 0.0
2018-Jan-25 23:28N 24°16' W 110°20'0 0.0
2018-Jan-25 22:59N 24°16' W 110°20'0 0.0
2018-Jan-25 22:28N 24°16' W 110°20'0 0.0
2018-Jan-25 21:58N 24°16' W 110°20'0 0.0
2018-Jan-25 21:28N 24°16' W 110°20'0 0.0
2018-Jan-25 20:58N 24°16' W 110°20'0 0.0
2018-Jan-25 20:29N 24°16' W 110°20'0 0.0
2018-Jan-25 19:58N 24°16' W 110°20'0 0.0
2018-Jan-25 19:28N 24°16' W 110°20'0 0.0
2018-Jan-25 18:58N 24°16' W 110°20'0 0.0
2018-Jan-25 18:28N 24°16' W 110°20'0 0.0
2018-Jan-25 17:58N 24°16' W 110°20'0 0.0
2018-Jan-25 17:28N 24°16' W 110°20'0 0.0
2018-Jan-25 16:58N 24°16' W 110°20'0 0.0
2018-Jan-25 16:28N 24°16' W 110°20'0 0.0
2018-Jan-25 15:59N 24°16' W 110°20'0 0.0
2018-Jan-25 15:28N 24°16' W 110°20'0 0.1
2018-Jan-25 14:57N 24°16' W 110°20'2 3.3
2018-Jan-25 14:28N 24°15' W 110°21'2 3.9
2018-Jan-25 13:58N 24°17' W 110°21'5 0.1
2018-Jan-24 03:42N 24°22' W 110°20'418.8
2018-Jan-24 03:28N 24°18' W 110°21'2 4.1
2018-Jan-24 02:59N 24°16' W 110°20'0 0.0
2018-Jan-24 02:28N 24°16' W 110°20'0 0.0
2018-Jan-24 01:58N 24°16' W 110°20'0 0.0
2018-Jan-24 01:23N 24°16' W 110°20'0 0.0
2018-Jan-24 00:58N 24°16' W 110°20'0 0.0
2018-Jan-24 00:28N 24°16' W 110°20'0 0.0
2018-Jan-23 23:58N 24°16' W 110°20'0 0.1
2018-Jan-23 23:28N 24°16' W 110°20'1 1.1
2018-Jan-23 22:59N 24°16' W 110°20'0 0.0
2018-Jan-23 22:28N 24°16' W 110°20'0 0.0
2018-Jan-23 21:58N 24°16' W 110°20'0 0.0
2018-Jan-23 21:28N 24°16' W 110°20'0 0.0
2018-Jan-23 20:58N 24°16' W 110°20'0 0.0
2018-Jan-23 20:25N 24°16' W 110°20'0 0.0
2018-Jan-23 19:55N 24°16' W 110°20'0 0.0
2018-Jan-23 19:29N 24°16' W 110°20'0 0.0
2018-Jan-23 18:44N 24°16' W 110°20'0 0.0
2018-Jan-23 18:28N 24°16' W 110°20'0 0.0
2018-Jan-23 17:58N 24°16' W 110°20'0 0.0
2018-Jan-23 17:28N 24°16' W 110°20'0 0.0
2018-Jan-23 16:58N 24°16' W 110°20'0 0.0
2018-Jan-23 16:28N 24°16' W 110°20'0 0.0
2018-Jan-23 15:58N 24°16' W 110°20'0 0.0
2018-Jan-23 15:28N 24°16' W 110°20'0 0.0
2018-Jan-23 14:58N 24°16' W 110°20'0 0.0
2018-Jan-23 14:28N 24°16' W 110°20'0 0.0
2018-Jan-23 13:58N 24°16' W 110°20'0 0.0
2018-Jan-23 13:28N 24°16' W 110°20'0 0.0
2018-Jan-23 12:58N 24°16' W 110°20'0 0.0
2018-Jan-23 12:28N 24°16' W 110°20'0 0.0
2018-Jan-23 11:58N 24°16' W 110°20'0 0.0
2018-Jan-23 11:28N 24°16' W 110°20'0 0.0
2018-Jan-23 10:58N 24°16' W 110°20'0 0.0
2018-Jan-23 10:28N 24°16' W 110°20'0 0.0
2018-Jan-23 09:58N 24°16' W 110°20'0 0.0
2018-Jan-23 09:28N 24°16' W 110°20'0 0.0
2018-Jan-23 08:58N 24°16' W 110°20'0 0.0
2018-Jan-23 08:28N 24°16' W 110°20'0 0.0
2018-Jan-23 07:58N 24°16' W 110°20'0 0.0
2018-Jan-23 07:28N 24°16' W 110°20'0 0.0
2018-Jan-23 06:58N 24°16' W 110°20'0 0.0
2018-Jan-23 06:28N 24°16' W 110°20'0 0.0
2018-Jan-23 05:58N 24°16' W 110°20'0 0.0
2018-Jan-23 05:28N 24°16' W 110°20'0 0.0
2018-Jan-23 04:58N 24°16' W 110°20'0 0.0
2018-Jan-23 04:28N 24°16' W 110°20'0 0.0
2018-Jan-23 03:58N 24°16' W 110°20'0 0.0
2018-Jan-23 03:28N 24°16' W 110°20'0 0.0
2018-Jan-23 02:52N 24°16' W 110°20'0 0.0
2018-Jan-23 02:28N 24°16' W 110°20'0 0.0
2018-Jan-23 01:58N 24°16' W 110°20'0 0.0
2018-Jan-23 01:28N 24°16' W 110°20'0 0.0
2018-Jan-23 00:58N 24°16' W 110°20'0 0.0
2018-Jan-23 00:27N 24°16' W 110°20'0 0.0
2018-Jan-22 23:58N 24°16' W 110°20'0 0.0
2018-Jan-22 23:26N 24°16' W 110°20'0 0.0
2018-Jan-22 22:58N 24°16' W 110°20'0 0.0
2018-Jan-22 22:30N 24°16' W 110°20'0 0.0
2018-Jan-22 21:59N 24°16' W 110°20'0 0.0
2018-Jan-22 21:28N 24°16' W 110°20'0 0.0
2018-Jan-22 20:58N 24°16' W 110°20'0 0.0
2018-Jan-22 20:28N 24°16' W 110°20'0 0.0
2018-Jan-22 19:58N 24°16' W 110°20'0 0.0
2018-Jan-22 19:28N 24°16' W 110°20'0 0.0
2018-Jan-22 18:58N 24°16' W 110°20'0 0.0
2018-Jan-22 18:29N 24°16' W 110°20'0 0.1
2018-Jan-22 17:58N 24°16' W 110°20'1 0.9
2018-Jan-22 17:24N 24°16' W 110°20'0 0.0
2018-Jan-22 17:00N 24°16' W 110°20'0 0.0
2018-Jan-22 16:30N 24°16' W 110°20'0 0.0
2018-Jan-22 16:00N 24°16' W 110°20'0 0.0
2018-Jan-22 15:30N 24°16' W 110°20'0 0.0
2018-Jan-22 15:00N 24°16' W 110°20'0 0.5
2018-Jan-22 14:29N 24°16' W 110°20'2 4.8
2018-Jan-22 13:59N 24°18' W 110°21'  

Dump ship's entire track history